Time;durP1;ratioP1;P1;durP2;ratioP2;P2;SDS_P1;SDS_P2;PMS_P1;PMS_P2;Temp;Humidity;BMP_temperature;BMP_pressure;BME280_temperature;BME280_humidity;BME280_pressure;Samples;Min_cycle;Max_cycle;Signal;HPM_P1;HPM_P2
2022/08/01 00:00:28;;;;;;;7.37;5.82;;;;;;;;;;4232848;33;20115;-71
2022/08/01 00:02:54;;;;;;;10.10;5.43;;;;;;;;;;4231316;33;20564;-71
2022/08/01 00:35:10;;;;;;;6.65;5.47;;;;;;;;;;4585189;27;20119;-74
2022/08/01 00:37:36;;;;;;;10.07;6.37;;;;;;;;;;4232552;33;20445;-74
2022/08/01 00:40:02;;;;;;;9.23;5.43;;;;;;;;;;4232001;33;20141;-74
2022/08/01 00:42:28;;;;;;;6.57;5.07;;;;;;;;;;4231299;33;20123;-65
2022/08/01 00:44:54;;;;;;;10.32;5.82;;;;;;;;;;4230987;33;20113;-65
2022/08/01 00:47:20;;;;;;;9.32;5.53;;;;;;;;;;4231944;33;20466;-75
2022/08/01 00:49:46;;;;;;;10.68;5.28;;;;;;;;;;4232456;33;20128;-75
2022/08/01 00:52:13;;;;;;;10.35;5.85;;;;;;;;;;4232672;33;20117;-74
2022/08/01 00:54:39;;;;;;;8.43;5.82;;;;;;;;;;4232434;33;20180;-74
2022/08/01 00:57:05;;;;;;;6.95;5.62;;;;;;;;;;4232708;33;20152;-73
2022/08/01 00:59:31;;;;;;;6.12;5.30;;;;;;;;;;4232246;33;20112;-74
2022/08/01 01:01:57;;;;;;;8.20;6.40;;;;;;;;;;4232436;33;20464;-73
2022/08/01 01:04:23;;;;;;;8.45;5.45;;;;;;;;;;4230952;33;20132;-65
2022/08/01 01:07:07;;;;;;;7.97;6.20;;;;;;;;;;4232321;33;20113;-65
2022/08/01 01:09:50;;;;;;;8.88;5.37;;;;;;;;;;4232340;33;20129;-65
2022/08/01 01:12:24;;;;;;;7.50;5.50;;;;;;;;;;4232361;33;20174;-65
2022/08/01 01:15:01;;;;;;;9.40;6.95;;;;;;;;;;4232418;33;20112;-65
2022/08/01 01:17:36;;;;;;;7.82;5.65;;;;;;;;;;4230879;33;20175;-65
2022/08/01 01:20:03;;;;;;;8.03;5.57;;;;;;;;;;4231967;33;20101;-65
2022/08/01 01:22:54;;;;;;;9.73;5.65;;;;;;;;;;4219161;33;20135;-65
2022/08/01 01:25:22;;;;;;;8.82;6.28;;;;;;;;;;4232389;33;20098;-65
2022/08/01 01:28:02;;;;;;;8.05;5.95;;;;;;;;;;4230648;33;20104;-64
2022/08/01 01:30:30;;;;;;;9.88;6.30;;;;;;;;;;4230763;33;20089;-65
2022/08/01 01:32:59;;;;;;;7.85;5.43;;;;;;;;;;4230662;33;20111;-65
2022/08/01 01:35:32;;;;;;;7.50;5.50;;;;;;;;;;4230239;33;20109;-65
2022/08/01 01:38:08;;;;;;;11.68;5.57;;;;;;;;;;4230849;33;20115;-65
2022/08/01 01:40:36;;;;;;;9.95;5.07;;;;;;;;;;4232038;33;20450;-65
2022/08/01 01:43:02;;;;;;;8.98;4.68;;;;;;;;;;4232896;33;20116;-65
2022/08/01 01:45:28;;;;;;;7.97;5.43;;;;;;;;;;4232770;33;20110;-66
2022/08/01 01:47:55;;;;;;;7.95;4.57;;;;;;;;;;4232634;33;20118;-66
2022/08/01 01:50:22;;;;;;;7.53;4.70;;;;;;;;;;4232744;33;20628;-66
2022/08/01 01:52:49;;;;;;;7.78;4.78;;;;;;;;;;4232572;33;20097;-66
2022/08/01 01:55:15;;;;;;;11.73;5.22;;;;;;;;;;4232946;33;20341;-66
2022/08/01 01:57:42;;;;;;;10.07;4.97;;;;;;;;;;4209015;33;20545;-66
2022/08/01 02:00:11;;;;;;;7.18;4.53;;;;;;;;;;4232267;33;20124;-66
2022/08/01 02:02:37;;;;;;;12.25;4.05;;;;;;;;;;4232596;33;20202;-66
2022/08/01 02:05:06;;;;;;;9.73;5.10;;;;;;;;;;4232565;33;20109;-67
2022/08/01 02:07:32;;;;;;;5.95;4.30;;;;;;;;;;4232708;33;20127;-66
2022/08/01 02:10:00;;;;;;;7.45;4.30;;;;;;;;;;4232434;33;20477;-66
2022/08/01 02:12:27;;;;;;;9.23;3.95;;;;;;;;;;4232359;33;20212;-66
2022/08/01 02:14:54;;;;;;;6.75;3.47;;;;;;;;;;4232701;33;20196;-66
2022/08/01 02:17:20;;;;;;;5.95;3.90;;;;;;;;;;4232667;33;20097;-66
2022/08/01 02:19:47;;;;;;;10.23;4.57;;;;;;;;;;4233595;33;20454;-66
2022/08/01 02:22:38;;;;;;;5.20;4.50;;;;;;;;;;4232507;33;20207;-64
2022/08/01 02:25:10;;;;;;;6.82;5.20;;;;;;;;;;4220844;33;20649;-64
2022/08/01 02:27:47;;;;;;;9.43;4.60;;;;;;;;;;4209929;33;20428;-66
2022/08/01 02:30:15;;;;;;;10.77;4.40;;;;;;;;;;4232505;33;20109;-66
2022/08/01 02:33:03;;;;;;;5.62;4.10;;;;;;;;;;4232304;33;20109;-66
2022/08/01 02:35:32;;;;;;;6.32;4.50;;;;;;;;;;4232173;33;20109;-66
2022/08/01 02:38:00;;;;;;;6.55;4.05;;;;;;;;;;4232086;33;20196;-66
2022/08/01 02:40:28;;;;;;;4.30;3.83;;;;;;;;;;4220599;33;20208;-66
2022/08/01 02:42:56;;;;;;;4.50;3.53;;;;;;;;;;4232414;33;20594;-66
2022/08/01 02:45:25;;;;;;;10.52;4.22;;;;;;;;;;4232390;33;20104;-66
2022/08/01 02:47:52;;;;;;;7.95;4.60;;;;;;;;;;4234035;33;20223;-66
2022/08/01 02:50:18;;;;;;;5.62;4.15;;;;;;;;;;4234070;33;20090;-66
2022/08/01 02:52:46;;;;;;;8.18;5.00;;;;;;;;;;4232317;33;20200;-66
2022/08/01 02:55:13;;;;;;;6.95;4.62;;;;;;;;;;4220384;33;20135;-66
2022/08/01 02:57:41;;;;;;;7.20;4.50;;;;;;;;;;4232022;33;20116;-66
2022/08/01 03:00:07;;;;;;;7.93;4.87;;;;;;;;;;4232069;33;20096;-67
2022/08/01 03:02:34;;;;;;;4.60;3.90;;;;;;;;;;4220492;33;20104;-65
2022/08/01 03:05:01;;;;;;;8.88;4.90;;;;;;;;;;4233002;33;20121;-65
2022/08/01 03:07:29;;;;;;;7.87;5.10;;;;;;;;;;4235515;33;20498;-64
2022/08/01 03:09:56;;;;;;;8.85;5.30;;;;;;;;;;4231864;33;20204;-65
2022/08/01 03:12:25;;;;;;;7.35;4.53;;;;;;;;;;4232218;33;20120;-65
2022/08/01 03:14:54;;;;;;;5.75;5.00;;;;;;;;;;4233419;33;20113;-65
2022/08/01 03:17:21;;;;;;;7.55;5.00;;;;;;;;;;4231843;33;20140;-65
2022/08/01 03:19:48;;;;;;;6.80;5.15;;;;;;;;;;4231742;33;20208;-65
2022/08/01 03:22:14;;;;;;;6.15;4.70;;;;;;;;;;4220163;33;20101;-65
2022/08/01 03:24:42;;;;;;;8.35;5.10;;;;;;;;;;4231433;33;20177;-65
2022/08/01 03:27:09;;;;;;;8.27;5.18;;;;;;;;;;4226926;33;20104;-65
2022/08/01 03:29:36;;;;;;;7.18;4.55;;;;;;;;;;4232616;33;20101;-64
2022/08/01 03:32:03;;;;;;;8.48;4.95;;;;;;;;;;4225533;33;20529;-64
2022/08/01 03:34:29;;;;;;;7.43;4.93;;;;;;;;;;4227021;33;20455;-64
2022/08/01 03:37:04;;;;;;;8.15;4.07;;;;;;;;;;4228942;33;20140;-64
2022/08/01 03:39:35;;;;;;;8.95;5.05;;;;;;;;;;4233175;33;20112;-64
2022/08/01 03:42:07;;;;;;;6.47;4.62;;;;;;;;;;4238056;33;20554;-64
2022/08/01 03:44:34;;;;;;;9.20;4.50;;;;;;;;;;4217747;33;20124;-64
2022/08/01 03:47:04;;;;;;;11.05;5.18;;;;;;;;;;4223515;33;20117;-63
2022/08/01 03:49:32;;;;;;;9.93;4.68;;;;;;;;;;4231947;33;20105;-64
2022/08/01 03:52:00;;;;;;;6.20;4.40;;;;;;;;;;4228945;33;20117;-64
2022/08/01 03:54:35;;;;;;;7.25;4.47;;;;;;;;;;4234327;33;20545;-65
2022/08/01 03:57:01;;;;;;;9.47;4.53;;;;;;;;;;4226589;33;20085;-64
2022/08/01 03:59:29;;;;;;;6.10;3.87;;;;;;;;;;4231090;33;20271;-64
2022/08/01 04:01:55;;;;;;;8.13;4.28;;;;;;;;;;4232206;33;20502;-63
2022/08/01 04:04:22;;;;;;;7.12;4.57;;;;;;;;;;4231223;33;20129;-62
2022/08/01 04:06:50;;;;;;;8.77;4.18;;;;;;;;;;4219626;33;20532;-63
2022/08/01 04:09:16;;;;;;;8.73;5.80;;;;;;;;;;4231460;33;20204;-60
2022/08/01 04:11:42;;;;;;;5.75;4.10;;;;;;;;;;4232771;33;20128;-63
2022/08/01 04:14:08;;;;;;;6.82;3.95;;;;;;;;;;4231447;33;20540;-64
2022/08/01 04:16:34;;;;;;;5.60;4.40;;;;;;;;;;4232734;33;20225;-62
2022/08/01 04:19:01;;;;;;;13.75;5.72;;;;;;;;;;4232702;33;20209;-65
2022/08/01 04:21:28;;;;;;;7.57;4.12;;;;;;;;;;4232207;33;20112;-63
2022/08/01 04:23:56;;;;;;;5.35;3.97;;;;;;;;;;4229269;33;20133;-62
2022/08/01 04:26:23;;;;;;;7.55;4.35;;;;;;;;;;4229378;33;20132;-63
2022/08/01 04:28:50;;;;;;;4.78;3.60;;;;;;;;;;4229229;33;20129;-63
2022/08/01 04:31:17;;;;;;;9.05;4.93;;;;;;;;;;4230545;33;20129;-65
2022/08/01 04:33:46;;;;;;;10.85;5.00;;;;;;;;;;4217323;33;20148;-68
2022/08/01 04:36:14;;;;;;;6.55;5.35;;;;;;;;;;4229069;33;20180;-64
2022/08/01 04:38:42;;;;;;;9.18;4.85;;;;;;;;;;4231322;33;20120;-63
2022/08/01 04:41:10;;;;;;;6.57;4.62;;;;;;;;;;4232388;33;20120;-64
2022/08/01 04:43:37;;;;;;;6.87;4.32;;;;;;;;;;4231080;33;20594;-64
2022/08/01 04:46:03;;;;;;;6.05;4.85;;;;;;;;;;4232363;33;20120;-64
2022/08/01 04:48:30;;;;;;;11.12;5.18;;;;;;;;;;4231005;33;20580;-64
2022/08/01 04:50:56;;;;;;;8.07;4.80;;;;;;;;;;4219231;33;20113;-64
2022/08/01 04:53:22;;;;;;;5.32;4.75;;;;;;;;;;4232417;33;20113;-65
2022/08/01 04:55:48;;;;;;;7.57;4.72;;;;;;;;;;4231044;33;20520;-62
2022/08/01 04:58:17;;;;;;;7.82;5.20;;;;;;;;;;4231112;33;20105;-63
2022/08/01 05:00:43;;;;;;;6.97;5.05;;;;;;;;;;4232163;33;20100;-64
2022/08/01 05:03:09;;;;;;;7.22;4.82;;;;;;;;;;4232384;33;20508;-63
2022/08/01 05:05:35;;;;;;;5.78;5.12;;;;;;;;;;4232529;33;20794;-63
2022/08/01 05:08:01;;;;;;;5.47;4.18;;;;;;;;;;4232231;33;20212;-63
2022/08/01 05:10:27;;;;;;;6.87;5.20;;;;;;;;;;4232313;33;20109;-65
2022/08/01 05:12:53;;;;;;;6.72;5.40;;;;;;;;;;4219164;33;20208;-64
2022/08/01 05:15:20;;;;;;;12.85;5.75;;;;;;;;;;4232538;33;20101;-64
2022/08/01 05:17:46;;;;;;;7.65;4.78;;;;;;;;;;4232082;33;20541;-64
2022/08/01 05:20:12;;;;;;;6.37;4.37;;;;;;;;;;4230814;33;20117;-64
2022/08/01 05:22:39;;;;;;;10.18;5.05;;;;;;;;;;4232096;33;20135;-71
2022/08/01 05:25:05;;;;;;;9.23;5.70;;;;;;;;;;4230832;33;20215;-64
2022/08/01 05:27:32;;;;;;;7.30;5.35;;;;;;;;;;4230550;33;20597;-65
2022/08/01 05:29:58;;;;;;;8.27;4.97;;;;;;;;;;4232206;33;20199;-64
2022/08/01 05:32:24;;;;;;;3.85;3.10;;;;;;;;;;4230603;33;20100;-65
2022/08/01 05:34:50;;;;;;;5.95;4.80;;;;;;;;;;4231881;33;20121;-63
2022/08/01 05:37:16;;;;;;;7.80;5.00;;;;;;;;;;4231781;33;20276;-65
2022/08/01 05:39:42;;;;;;;5.43;2.62;;;;;;;;;;4231968;33;20545;-65
2022/08/01 05:42:08;;;;;;;6.50;4.68;;;;;;;;;;4232085;33;20192;-64
2022/08/01 05:44:34;;;;;;;7.55;6.43;;;;;;;;;;4231875;33;20128;-65
2022/08/01 05:47:00;;;;;;;8.00;5.78;;;;;;;;;;4231717;33;20106;-65
2022/08/01 05:49:26;;;;;;;6.57;4.43;;;;;;;;;;4230456;33;20219;-65
2022/08/01 05:51:52;;;;;;;4.87;3.70;;;;;;;;;;4231845;33;20121;-65
2022/08/01 05:54:18;;;;;;;5.43;2.80;;;;;;;;;;4231884;33;20524;-66
2022/08/01 05:56:44;;;;;;;4.50;3.42;;;;;;;;;;4230335;33;20089;-66
2022/08/01 05:59:10;;;;;;;7.72;5.25;;;;;;;;;;4231874;33;20109;-65
2022/08/01 06:01:36;;;;;;;7.70;5.28;;;;;;;;;;4231625;33;20185;-67
2022/08/01 06:04:02;;;;;;;5.53;2.78;;;;;;;;;;4229790;33;21008;-66
2022/08/01 06:06:28;;;;;;;6.53;3.55;;;;;;;;;;4231369;33;20498;-65
2022/08/01 06:08:54;;;;;;;9.90;5.50;;;;;;;;;;4231735;33;20109;-66
2022/08/01 06:11:20;;;;;;;8.85;4.85;;;;;;;;;;4231621;33;20195;-65
2022/08/01 06:13:46;;;;;;;4.15;3.28;;;;;;;;;;4231716;33;20105;-64
2022/08/01 06:16:12;;;;;;;2.97;2.67;;;;;;;;;;4231604;33;20212;-69
2022/08/01 06:18:38;;;;;;;7.60;5.07;;;;;;;;;;4231677;33;20108;-69
2022/08/01 06:21:04;;;;;;;7.87;6.07;;;;;;;;;;4231649;33;20097;-68
2022/08/01 06:23:30;;;;;;;7.35;5.75;;;;;;;;;;4230070;33;20153;-65
2022/08/01 06:25:57;;;;;;;9.10;5.50;;;;;;;;;;4232175;33;20215;-65
2022/08/01 06:28:24;;;;;;;4.30;3.90;;;;;;;;;;4233623;33;20473;-65
2022/08/01 06:30:50;;;;;;;8.40;5.55;;;;;;;;;;4233603;33;20537;-65
2022/08/01 06:33:16;;;;;;;11.12;5.15;;;;;;;;;;4233804;33;20116;-64
2022/08/01 06:35:42;;;;;;;8.55;5.97;;;;;;;;;;4233343;33;20120;-65
2022/08/01 06:38:08;;;;;;;8.52;5.80;;;;;;;;;;4220712;33;20118;-64
2022/08/01 06:40:34;;;;;;;4.75;3.70;;;;;;;;;;4233404;33;20224;-66
2022/08/01 06:43:00;;;;;;;9.75;6.10;;;;;;;;;;4233499;33;20109;-66
2022/08/01 06:45:26;;;;;;;12.40;6.65;;;;;;;;;;4233550;33;20616;-66
2022/08/01 06:47:52;;;;;;;8.20;5.70;;;;;;;;;;4232055;33;20136;-66
2022/08/01 06:50:19;;;;;;;8.32;5.80;;;;;;;;;;4231995;33;20102;-65
2022/08/01 06:52:45;;;;;;;10.10;6.35;;;;;;;;;;4233391;33;20211;-65
2022/08/01 06:55:11;;;;;;;12.35;7.65;;;;;;;;;;4233825;33;20192;-65
2022/08/01 06:57:45;;;;;;;11.90;7.70;;;;;;;;;;4233418;33;20533;-65
2022/08/01 07:00:12;;;;;;;9.15;6.03;;;;;;;;;;4231799;33;20124;-65
2022/08/01 07:02:39;;;;;;;12.40;7.93;;;;;;;;;;4232153;33;20121;-65
2022/08/01 07:05:05;;;;;;;12.63;7.95;;;;;;;;;;4231927;33;20564;-64
2022/08/01 07:07:31;;;;;;;9.27;7.20;;;;;;;;;;4233382;33;20097;-65
2022/08/01 07:09:57;;;;;;;9.10;7.25;;;;;;;;;;4220325;33;20165;-65
2022/08/01 07:12:23;;;;;;;18.98;9.10;;;;;;;;;;4233289;33;20513;-65
2022/08/01 07:14:49;;;;;;;9.55;8.13;;;;;;;;;;4233144;33;20156;-67
2022/08/01 07:17:15;;;;;;;9.90;8.00;;;;;;;;;;4232160;33;20461;-66
2022/08/01 07:19:41;;;;;;;11.07;8.50;;;;;;;;;;4233338;33;20105;-66
2022/08/01 07:22:07;;;;;;;9.60;7.97;;;;;;;;;;4231847;33;20211;-66
2022/08/01 07:24:34;;;;;;;9.63;7.55;;;;;;;;;;4233142;33;20097;-66
2022/08/01 07:27:00;;;;;;;10.27;7.70;;;;;;;;;;4231832;33;20569;-67
2022/08/01 07:29:26;;;;;;;11.45;7.30;;;;;;;;;;4233193;33;20094;-67
2022/08/01 07:31:56;;;;;;;9.88;7.60;;;;;;;;;;4233484;33;20089;-67
2022/08/01 07:34:23;;;;;;;10.13;7.07;;;;;;;;;;4231855;33;20502;-68
2022/08/01 07:36:50;;;;;;;10.63;6.70;;;;;;;;;;4232852;33;20552;-66
2022/08/01 07:39:16;;;;;;;10.88;7.00;;;;;;;;;;4232898;33;20227;-65
2022/08/01 07:41:42;;;;;;;8.18;6.65;;;;;;;;;;4233468;33;20446;-66
2022/08/01 07:44:08;;;;;;;10.25;6.87;;;;;;;;;;4233159;33;20119;-65
2022/08/01 07:46:34;;;;;;;10.35;4.20;;;;;;;;;;4233076;33;20128;-65
2022/08/01 07:49:00;;;;;;;11.15;6.47;;;;;;;;;;4232843;33;20102;-67
2022/08/01 07:51:26;;;;;;;11.38;6.82;;;;;;;;;;4219779;33;20220;-67
2022/08/01 07:53:52;;;;;;;8.30;5.68;;;;;;;;;;4232876;33;20120;-67
2022/08/01 07:56:19;;;;;;;13.38;7.18;;;;;;;;;;4232945;33;20127;-65
2022/08/01 07:58:46;;;;;;;8.73;6.50;;;;;;;;;;4206744;33;20144;-66
2022/08/01 08:01:12;;;;;;;9.50;6.12;;;;;;;;;;4230468;33;20128;-66
2022/08/01 08:03:38;;;;;;;9.07;5.93;;;;;;;;;;4230984;33;20199;-66
2022/08/01 08:06:04;;;;;;;11.32;7.20;;;;;;;;;;4231330;33;20552;-65
2022/08/01 08:08:30;;;;;;;8.13;6.25;;;;;;;;;;4227966;33;20148;-66
2022/08/01 08:10:56;;;;;;;10.20;6.22;;;;;;;;;;4228083;33;20213;-65
2022/08/01 08:13:22;;;;;;;9.05;6.20;;;;;;;;;;4226794;33;20557;-66
2022/08/01 08:15:48;;;;;;;8.18;6.22;;;;;;;;;;4228378;33;20101;-66
2022/08/01 08:18:15;;;;;;;8.68;5.07;;;;;;;;;;4229809;33;20156;-66
2022/08/01 08:20:41;;;;;;;8.73;5.32;;;;;;;;;;4231156;33;20113;-66
2022/08/01 08:24:19;;;;;;;7.25;4.95;;;;;;;;;;4229434;33;20125;-66
2022/08/01 08:25:53;;;;;;;6.82;5.47;;;;;;;;;;4229482;33;20765;-67
2022/08/01 08:28:19;;;;;;;11.32;6.85;;;;;;;;;;4227853;33;20124;-67
2022/08/01 08:30:45;;;;;;;9.45;6.65;;;;;;;;;;4229722;33;20112;-68
2022/08/01 08:33:11;;;;;;;5.82;4.62;;;;;;;;;;4227893;33;20123;-67
2022/08/01 08:35:40;;;;;;;8.35;5.37;;;;;;;;;;4229168;33;20124;-66
2022/08/01 08:38:06;;;;;;;5.93;4.10;;;;;;;;;;4227947;33;20122;-65
2022/08/01 08:40:35;;;;;;;8.05;5.75;;;;;;;;;;4232075;33;20121;-65
2022/08/01 08:43:02;;;;;;;6.90;5.12;;;;;;;;;;4231396;33;20093;-66
2022/08/01 08:45:28;;;;;;;7.18;5.50;;;;;;;;;;4230864;33;20548;-66
2022/08/01 08:47:54;;;;;;;8.50;5.87;;;;;;;;;;4232478;33;20115;-65
2022/08/01 08:50:21;;;;;;;8.93;5.80;;;;;;;;;;4230855;33;20124;-67
2022/08/01 08:52:48;;;;;;;7.28;5.85;;;;;;;;;;4231199;33;20540;-67
2022/08/01 08:55:15;;;;;;;8.27;5.30;;;;;;;;;;4231006;33;20108;-65
2022/08/01 08:57:44;;;;;;;9.48;5.20;;;;;;;;;;4231056;33;20124;-66
2022/08/01 09:00:11;;;;;;;10.35;5.37;;;;;;;;;;4232380;33;20473;-65
2022/08/01 09:02:44;;;;;;;8.68;5.70;;;;;;;;;;4232377;33;20124;-65
2022/08/01 09:05:11;;;;;;;9.82;5.50;;;;;;;;;;4232151;33;20117;-66
2022/08/01 09:07:37;;;;;;;7.03;5.18;;;;;;;;;;4230919;33;20745;-66
2022/08/01 09:10:04;;;;;;;14.48;5.43;;;;;;;;;;4232359;33;20565;-66
2022/08/01 09:12:30;;;;;;;7.25;4.68;;;;;;;;;;4232331;33;20136;-66
2022/08/01 09:14:56;;;;;;;7.20;3.92;;;;;;;;;;4230575;33;20634;-66
2022/08/01 09:17:23;;;;;;;11.57;5.20;;;;;;;;;;4230883;33;20516;-66
2022/08/01 09:19:52;;;;;;;7.60;5.72;;;;;;;;;;4230706;33;20117;-65
2022/08/01 09:22:22;;;;;;;7.45;5.03;;;;;;;;;;4231036;33;20116;-65
2022/08/01 09:25:08;;;;;;;5.37;3.75;;;;;;;;;;4232046;33;20117;-64
2022/08/01 09:27:37;;;;;;;6.55;5.28;;;;;;;;;;4232130;33;20104;-64
2022/08/01 09:30:22;;;;;;;7.80;5.10;;;;;;;;;;4230596;33;20196;-63
2022/08/01 09:33:02;;;;;;;7.47;5.30;;;;;;;;;;4232027;33;20517;-64
2022/08/01 09:35:35;;;;;;;9.85;5.53;;;;;;;;;;4231772;33;20481;-64
2022/08/01 09:38:14;;;;;;;10.00;6.20;;;;;;;;;;4230615;33;20105;-64
2022/08/01 09:40:59;;;;;;;7.68;5.20;;;;;;;;;;4231847;33;20501;-64
2022/08/01 09:43:27;;;;;;;6.62;3.70;;;;;;;;;;4218679;33;20133;-65
2022/08/01 09:45:54;;;;;;;7.05;3.70;;;;;;;;;;4218960;33;20118;-65
2022/08/01 09:48:21;;;;;;;5.12;4.25;;;;;;;;;;4231816;33;20128;-64
2022/08/01 09:50:50;;;;;;;8.65;5.85;;;;;;;;;;4231815;33;20105;-64
2022/08/01 09:53:16;;;;;;;8.88;5.65;;;;;;;;;;4231852;33;20220;-64
2022/08/01 09:55:44;;;;;;;18.58;6.12;;;;;;;;;;4231834;33;20108;-65
2022/08/01 09:58:11;;;;;;;11.15;5.60;;;;;;;;;;4231735;33;20109;-64
2022/08/01 10:00:38;;;;;;;9.45;6.10;;;;;;;;;;4232054;33;20211;-64
2022/08/01 10:03:26;;;;;;;4.20;3.42;;;;;;;;;;4233900;33;20208;-64
2022/08/01 10:05:53;;;;;;;8.68;4.78;;;;;;;;;;4232369;33;20646;-64
2022/08/01 10:08:20;;;;;;;7.40;5.18;;;;;;;;;;4233810;33;20109;-64
2022/08/01 10:11:07;;;;;;;5.22;3.90;;;;;;;;;;4232299;33;20440;-63
2022/08/01 10:13:33;;;;;;;12.18;4.93;;;;;;;;;;4233635;33;20117;-65
2022/08/01 10:16:00;;;;;;;6.47;3.87;;;;;;;;;;4232374;33;20196;-64
2022/08/01 10:18:28;;;;;;;6.55;4.37;;;;;;;;;;4232213;33;20125;-64
2022/08/01 10:20:54;;;;;;;7.57;5.25;;;;;;;;;;4220922;33;20113;-64
2022/08/01 10:23:21;;;;;;;6.78;3.95;;;;;;;;;;4233962;33;20101;-64
2022/08/01 10:25:48;;;;;;;9.35;5.68;;;;;;;;;;4233617;33;20112;-64
2022/08/01 10:28:18;;;;;;;12.88;6.05;;;;;;;;;;4233514;33;20580;-64
2022/08/01 10:30:44;;;;;;;12.15;5.43;;;;;;;;;;4233655;33;20155;-65
2022/08/01 10:33:11;;;;;;;14.57;5.68;;;;;;;;;;4232135;33;20212;-64
2022/08/01 10:35:38;;;;;;;10.10;6.30;;;;;;;;;;4233511;33;20303;-63
2022/08/01 10:38:05;;;;;;;9.32;6.35;;;;;;;;;;4233433;33;20089;-63
2022/08/01 10:40:32;;;;;;;10.60;6.15;;;;;;;;;;4233597;33;20089;-62
2022/08/01 10:42:58;;;;;;;7.50;6.10;;;;;;;;;;4232121;33;20115;-64
2022/08/01 10:45:25;;;;;;;6.85;4.97;;;;;;;;;;4233557;33;20121;-64
2022/08/01 10:47:58;;;;;;;7.93;5.28;;;;;;;;;;4232089;33;20101;-68
2022/08/01 10:50:32;;;;;;;7.30;5.47;;;;;;;;;;4220834;33;20125;-67
2022/08/01 10:53:08;;;;;;;7.70;3.83;;;;;;;;;;4233493;33;20105;-65
2022/08/01 10:55:49;;;;;;;14.55;5.53;;;;;;;;;;4232080;33;20529;-66
2022/08/01 10:58:26;;;;;;;8.65;5.40;;;;;;;;;;4233377;33;20105;-67
2022/08/01 11:01:14;;;;;;;10.10;5.95;;;;;;;;;;4233272;33;20093;-66
2022/08/01 11:04:04;;;;;;;6.35;4.03;;;;;;;;;;4233257;33;20173;-67
2022/08/01 11:06:32;;;;;;;6.28;4.28;;;;;;;;;;4232046;33;20137;-66
2022/08/01 11:09:00;;;;;;;7.68;4.90;;;;;;;;;;4233515;33;20189;-66
2022/08/01 11:11:27;;;;;;;5.87;3.10;;;;;;;;;;4233408;33;20437;-66
2022/08/01 11:14:03;;;;;;;8.13;5.37;;;;;;;;;;4233223;33;20105;-66
2022/08/01 11:16:35;;;;;;;3.70;2.95;;;;;;;;;;4231931;33;20533;-63
2022/08/01 11:19:05;;;;;;;10.98;6.00;;;;;;;;;;4231734;33;20506;-65
2022/08/01 11:21:52;;;;;;;6.82;3.70;;;;;;;;;;4233272;33;20132;-63
2022/08/01 11:24:56;;;;;;;7.53;4.65;;;;;;;;;;4233218;33;20560;-66
2022/08/01 11:27:30;;;;;;;10.52;5.75;;;;;;;;;;4202936;34;20102;-64
2022/08/01 11:30:08;;;;;;;11.77;6.10;;;;;;;;;;4229123;33;20180;-70
2022/08/01 11:32:51;;;;;;;6.28;4.25;;;;;;;;;;4231716;33;20184;-66
2022/08/01 11:35:18;;;;;;;6.90;4.47;;;;;;;;;;4227851;33;20512;-67
2022/08/01 11:37:44;;;;;;;6.90;4.78;;;;;;;;;;4220960;33;20612;-67
2022/08/01 11:40:26;;;;;;;5.80;4.97;;;;;;;;;;4231674;33;20529;-68
2022/08/01 11:43:13;;;;;;;6.45;4.82;;;;;;;;;;4223491;33;20109;-66
2022/08/01 11:45:55;;;;;;;5.05;2.90;;;;;;;;;;4219339;33;20676;-66
2022/08/01 11:48:22;;;;;;;10.90;5.80;;;;;;;;;;4222145;33;20149;-64
2022/08/01 11:50:50;;;;;;;7.68;5.45;;;;;;;;;;4230449;33;20104;-63
2022/08/01 11:53:18;;;;;;;5.70;3.90;;;;;;;;;;4231920;33;20235;-64
2022/08/01 11:55:51;;;;;;;7.40;4.87;;;;;;;;;;4233152;33;20588;-64
2022/08/01 11:58:22;;;;;;;6.00;3.67;;;;;;;;;;4204194;34;20136;-64
2022/08/01 12:00:52;;;;;;;8.60;4.30;;;;;;;;;;4206211;34;20078;-63
2022/08/01 12:03:27;;;;;;;7.82;4.07;;;;;;;;;;4224760;33;20102;-63
2022/08/01 12:05:54;;;;;;;8.73;4.37;;;;;;;;;;4220280;33;20136;-64
2022/08/01 12:08:34;;;;;;;9.50;4.68;;;;;;;;;;4220642;33;20086;-64
2022/08/01 12:11:01;;;;;;;4.28;3.37;;;;;;;;;;4230670;33;20105;-63
2022/08/01 12:13:29;;;;;;;8.77;4.37;;;;;;;;;;4230964;33;20089;-63
2022/08/01 12:15:56;;;;;;;5.85;4.28;;;;;;;;;;4230949;33;20085;-65
2022/08/01 12:18:22;;;;;;;9.20;6.20;;;;;;;;;;4231145;33;20128;-66
2022/08/01 12:20:48;;;;;;;5.75;3.47;;;;;;;;;;4232064;33;20117;-66
2022/08/01 12:23:15;;;;;;;6.12;4.43;;;;;;;;;;4232078;33;20462;-66
2022/08/01 12:25:48;;;;;;;5.82;4.20;;;;;;;;;;4232598;33;20116;-66
2022/08/01 12:28:14;;;;;;;7.35;4.07;;;;;;;;;;4218984;33;20100;-66
2022/08/01 12:30:40;;;;;;;15.00;4.47;;;;;;;;;;4231972;33;20096;-66
2022/08/01 12:33:10;;;;;;;9.73;5.62;;;;;;;;;;4231308;33;20506;-66
2022/08/01 12:35:37;;;;;;;12.82;6.05;;;;;;;;;;4232695;33;20085;-66
2022/08/01 12:38:18;;;;;;;23.30;7.55;;;;;;;;;;4232576;33;20125;-66
2022/08/01 12:40:46;;;;;;;14.23;7.50;;;;;;;;;;4232033;33;20213;-67
2022/08/01 12:43:17;;;;;;;10.18;6.85;;;;;;;;;;4230895;33;20125;-66
2022/08/01 12:45:43;;;;;;;13.38;7.37;;;;;;;;;;4232643;33;20132;-67
2022/08/01 12:48:11;;;;;;;7.00;4.35;;;;;;;;;;4230997;33;20097;-66
2022/08/01 12:50:39;;;;;;;8.43;5.03;;;;;;;;;;4232039;33;20105;-67
2022/08/01 12:53:06;;;;;;;11.43;5.70;;;;;;;;;;4231370;33;20119;-66
2022/08/01 12:55:32;;;;;;;8.80;5.87;;;;;;;;;;4230866;33;20113;-66
2022/08/01 12:58:12;;;;;;;7.47;4.37;;;;;;;;;;4232552;33;20534;-65
2022/08/01 13:00:40;;;;;;;6.03;5.00;;;;;;;;;;4231805;33;20212;-66
2022/08/01 13:03:16;;;;;;;6.20;4.68;;;;;;;;;;4230782;33;20129;-66
2022/08/01 13:05:56;;;;;;;5.47;4.35;;;;;;;;;;4232335;33;20216;-69
2022/08/01 13:08:31;;;;;;;7.60;4.57;;;;;;;;;;4230489;33;20104;-66
2022/08/01 13:11:04;;;;;;;11.25;5.47;;;;;;;;;;4230760;33;20498;-65
2022/08/01 13:13:43;;;;;;;5.28;4.55;;;;;;;;;;4232137;33;20651;-63
2022/08/01 13:16:10;;;;;;;5.37;4.10;;;;;;;;;;4218802;33;20180;-63
2022/08/01 13:18:37;;;;;;;5.12;4.20;;;;;;;;;;4218961;33;20112;-64
2022/08/01 13:21:14;;;;;;;7.75;4.70;;;;;;;;;;4231987;33;20131;-65
2022/08/01 13:23:41;;;;;;;9.60;5.05;;;;;;;;;;4230494;33;20546;-65
2022/08/01 13:26:07;;;;;;;4.25;3.78;;;;;;;;;;4231919;33;20199;-66
2022/08/01 13:28:33;;;;;;;5.37;4.15;;;;;;;;;;4231433;33;20195;-66
2022/08/01 13:31:10;;;;;;;9.18;3.70;;;;;;;;;;4232407;33;20108;-66
2022/08/01 13:33:47;;;;;;;5.80;3.45;;;;;;;;;;4236271;33;20216;-64
2022/08/01 13:36:13;;;;;;;8.15;4.15;;;;;;;;;;4237466;33;20094;-63
2022/08/01 13:41:25;;;;;;;;;;;;;;;;;;4236910;33;20105;-67
2022/08/01 13:43:51;;;;;;;6.18;3.67;;;;;;;;;;4233976;33;20068;-68
2022/08/01 13:46:18;;;;;;;8.25;4.03;;;;;;;;;;4234207;33;20248;-64
2022/08/01 13:48:43;;;;;;;5.45;3.90;;;;;;;;;;4231742;33;20129;-64
2022/08/01 13:51:10;;;;;;;5.97;3.85;;;;;;;;;;4232240;33;20116;-68
2022/08/01 13:53:36;;;;;;;5.28;4.07;;;;;;;;;;4232820;33;20131;-66
2022/08/01 13:56:02;;;;;;;4.40;3.55;;;;;;;;;;4233883;33;20132;-65
2022/08/01 13:58:28;;;;;;;9.13;3.95;;;;;;;;;;4233379;33;20137;-66
2022/08/01 14:00:55;;;;;;;4.62;3.53;;;;;;;;;;4233346;33;20124;-66
2022/08/01 14:03:22;;;;;;;5.03;4.35;;;;;;;;;;4233568;33;20101;-66
2022/08/01 14:05:48;;;;;;;9.35;4.07;;;;;;;;;;4233703;33;20105;-65
2022/08/01 14:08:16;;;;;;;4.03;3.53;;;;;;;;;;4233823;33;20526;-66
2022/08/01 14:10:42;;;;;;;8.23;3.92;;;;;;;;;;4233687;33;20197;-66
2022/08/01 14:13:08;;;;;;;8.77;4.28;;;;;;;;;;4233915;33;20137;-66
2022/08/01 14:15:34;;;;;;;4.53;3.60;;;;;;;;;;4232422;33;20129;-66
2022/08/01 14:18:00;;;;;;;5.07;3.78;;;;;;;;;;4232603;33;20200;-65
2022/08/01 14:20:26;;;;;;;7.30;3.65;;;;;;;;;;4233458;33;20212;-65
2022/08/01 14:22:52;;;;;;;6.87;3.60;;;;;;;;;;4233713;33;20223;-65
2022/08/01 14:25:18;;;;;;;5.68;3.78;;;;;;;;;;4233534;33;20488;-65
2022/08/01 14:27:45;;;;;;;7.05;4.12;;;;;;;;;;4233028;33;20128;-65
2022/08/01 14:30:12;;;;;;;4.40;3.62;;;;;;;;;;4233914;33;20105;-65
2022/08/01 14:32:38;;;;;;;4.05;3.33;;;;;;;;;;4255768;33;20093;-65
2022/08/01 14:35:06;;;;;;;5.47;4.15;;;;;;;;;;4251663;33;20113;-65
2022/08/01 14:37:32;;;;;;;9.13;3.95;;;;;;;;;;4232545;33;20135;-67
2022/08/01 14:40:00;;;;;;;8.43;3.53;;;;;;;;;;4233424;33;20139;-68
2022/08/01 14:42:26;;;;;;;5.55;3.60;;;;;;;;;;4232077;33;20120;-67
2022/08/01 14:44:52;;;;;;;3.47;2.58;;;;;;;;;;4233394;33;20121;-67
2022/08/01 14:47:18;;;;;;;4.93;2.90;;;;;;;;;;4233275;33;20204;-67
2022/08/01 14:49:44;;;;;;;5.47;4.10;;;;;;;;;;4233533;33;20121;-67
2022/08/01 14:52:10;;;;;;;4.65;3.42;;;;;;;;;;4233591;33;20203;-67
2022/08/01 14:54:36;;;;;;;5.25;4.00;;;;;;;;;;4233455;33;20485;-71
2022/08/01 14:57:02;;;;;;;11.80;3.35;;;;;;;;;;4230387;33;20192;-71
2022/08/01 14:59:28;;;;;;;6.25;3.60;;;;;;;;;;4232128;33;20579;-71
2022/08/01 15:01:54;;;;;;;4.43;3.15;;;;;;;;;;4228524;33;20097;-69
2022/08/01 15:04:20;;;;;;;4.22;3.55;;;;;;;;;;4232555;33;20133;-73
2022/08/01 15:06:46;;;;;;;7.00;2.95;;;;;;;;;;4231012;33;20117;-69
2022/08/01 15:09:12;;;;;;;8.32;3.80;;;;;;;;;;4230362;33;20093;-70
2022/08/01 15:11:38;;;;;;;5.85;4.03;;;;;;;;;;4230403;33;20449;-69
2022/08/01 15:16:48;;;;;;;7.05;4.07;;;;;;;;;;4232106;33;20136;-69
2022/08/01 15:19:14;;;;;;;6.68;3.08;;;;;;;;;;4228776;33;20212;-69
2022/08/01 15:21:40;;;;;;;6.93;3.05;;;;;;;;;;4227857;33;20207;-70
2022/08/01 15:24:07;;;;;;;4.65;3.35;;;;;;;;;;4214574;33;20117;-72